sensor_id;sensor_type;location;lat;lon;timestamp;P1;durP1;ratioP1;P2;durP2;ratioP2
50126;SDS011;36024;47.974;16.398;2022-12-17T00:02:35;37.53;;;23.80;;
50126;SDS011;36024;47.974;16.398;2022-12-17T00:05:20;33.80;;;21.60;;
50126;SDS011;36024;47.974;16.398;2022-12-17T00:08:05;35.40;;;22.17;;
50126;SDS011;36024;47.974;16.398;2022-12-17T00:10:50;34.57;;;21.73;;
50126;SDS011;36024;47.974;16.398;2022-12-17T00:13:35;35.07;;;22.20;;
50126;SDS011;36024;47.974;16.398;2022-12-17T00:16:21;36.50;;;22.40;;
50126;SDS011;36024;47.974;16.398;2022-12-17T00:19:06;33.30;;;20.33;;
50126;SDS011;36024;47.974;16.398;2022-12-17T00:21:52;32.27;;;21.60;;
50126;SDS011;36024;47.974;16.398;2022-12-17T00:24:37;32.93;;;20.83;;
50126;SDS011;36024;47.974;16.398;2022-12-17T00:27:22;34.67;;;20.30;;
50126;SDS011;36024;47.974;16.398;2022-12-17T00:30:11;34.57;;;20.97;;
50126;SDS011;36024;47.974;16.398;2022-12-17T00:32:56;34.80;;;20.33;;
50126;SDS011;36024;47.974;16.398;2022-12-17T00:35:41;32.53;;;20.00;;
50126;SDS011;36024;47.974;16.398;2022-12-17T00:38:26;32.53;;;19.53;;
50126;SDS011;36024;47.974;16.398;2022-12-17T00:41:12;32.17;;;20.63;;
50126;SDS011;36024;47.974;16.398;2022-12-17T00:44:04;30.77;;;19.97;;
50126;SDS011;36024;47.974;16.398;2022-12-17T00:46:49;32.70;;;19.43;;
50126;SDS011;36024;47.974;16.398;2022-12-17T00:49:35;28.20;;;18.23;;
50126;SDS011;36024;47.974;16.398;2022-12-17T00:52:23;31.23;;;19.37;;
50126;SDS011;36024;47.974;16.398;2022-12-17T00:55:09;31.73;;;19.73;;
50126;SDS011;36024;47.974;16.398;2022-12-17T00:57:54;30.20;;;18.77;;
50126;SDS011;36024;47.974;16.398;2022-12-17T01:00:41;32.10;;;18.93;;
50126;SDS011;36024;47.974;16.398;2022-12-17T01:03:26;30.90;;;19.73;;
50126;SDS011;36024;47.974;16.398;2022-12-17T01:06:12;30.83;;;19.87;;
50126;SDS011;36024;47.974;16.398;2022-12-17T01:08:57;32.67;;;20.43;;
50126;SDS011;36024;47.974;16.398;2022-12-17T01:11:42;30.10;;;18.37;;
50126;SDS011;36024;47.974;16.398;2022-12-17T01:14:28;28.57;;;19.00;;
50126;SDS011;36024;47.974;16.398;2022-12-17T01:17:12;29.73;;;18.73;;
50126;SDS011;36024;47.974;16.398;2022-12-17T01:19:58;29.27;;;19.17;;
50126;SDS011;36024;47.974;16.398;2022-12-17T01:22:45;28.40;;;18.07;;
50126;SDS011;36024;47.974;16.398;2022-12-17T01:25:30;27.70;;;18.00;;
50126;SDS011;36024;47.974;16.398;2022-12-17T01:28:21;27.67;;;16.73;;
50126;SDS011;36024;47.974;16.398;2022-12-17T01:31:10;27.43;;;18.10;;
50126;SDS011;36024;47.974;16.398;2022-12-17T01:34:00;30.37;;;19.73;;
50126;SDS011;36024;47.974;16.398;2022-12-17T01:36:46;28.83;;;17.57;;
50126;SDS011;36024;47.974;16.398;2022-12-17T01:39:31;31.70;;;20.07;;
50126;SDS011;36024;47.974;16.398;2022-12-17T01:42:16;28.70;;;18.53;;
50126;SDS011;36024;47.974;16.398;2022-12-17T01:45:01;27.93;;;18.37;;
50126;SDS011;36024;47.974;16.398;2022-12-17T01:47:51;27.43;;;18.17;;
50126;SDS011;36024;47.974;16.398;2022-12-17T01:50:41;29.07;;;18.33;;
50126;SDS011;36024;47.974;16.398;2022-12-17T01:53:33;25.50;;;16.77;;
50126;SDS011;36024;47.974;16.398;2022-12-17T01:56:23;26.97;;;17.60;;
50126;SDS011;36024;47.974;16.398;2022-12-17T01:59:10;27.53;;;17.97;;
50126;SDS011;36024;47.974;16.398;2022-12-17T02:01:57;25.83;;;16.87;;
50126;SDS011;36024;47.974;16.398;2022-12-17T02:04:42;29.50;;;18.53;;
50126;SDS011;36024;47.974;16.398;2022-12-17T02:13:31;29.00;;;19.47;;
50126;SDS011;36024;47.974;16.398;2022-12-17T02:16:24;30.17;;;19.70;;
50126;SDS011;36024;47.974;16.398;2022-12-17T02:19:26;29.57;;;18.67;;
50126;SDS011;36024;47.974;16.398;2022-12-17T02:22:19;29.47;;;18.70;;
50126;SDS011;36024;47.974;16.398;2022-12-17T02:25:36;25.60;;;17.50;;
50126;SDS011;36024;47.974;16.398;2022-12-17T02:28:26;27.00;;;18.57;;
50126;SDS011;36024;47.974;16.398;2022-12-17T02:31:12;25.40;;;17.13;;
50126;SDS011;36024;47.974;16.398;2022-12-17T02:33:59;28.47;;;18.40;;
50126;SDS011;36024;47.974;16.398;2022-12-17T02:36:47;24.77;;;17.47;;
50126;SDS011;36024;47.974;16.398;2022-12-17T02:39:32;27.33;;;18.87;;
50126;SDS011;36024;47.974;16.398;2022-12-17T02:42:21;27.27;;;17.90;;
50126;SDS011;36024;47.974;16.398;2022-12-17T02:45:08;26.03;;;16.70;;
50126;SDS011;36024;47.974;16.398;2022-12-17T02:47:54;28.33;;;19.23;;
50126;SDS011;36024;47.974;16.398;2022-12-17T02:50:41;30.00;;;19.30;;
50126;SDS011;36024;47.974;16.398;2022-12-17T02:53:27;25.90;;;17.70;;
50126;SDS011;36024;47.974;16.398;2022-12-17T02:56:12;27.87;;;17.90;;
50126;SDS011;36024;47.974;16.398;2022-12-17T02:58:57;27.27;;;17.87;;
50126;SDS011;36024;47.974;16.398;2022-12-17T03:01:43;26.03;;;17.10;;
50126;SDS011;36024;47.974;16.398;2022-12-17T03:04:29;23.70;;;16.10;;
50126;SDS011;36024;47.974;16.398;2022-12-17T03:07:15;27.53;;;18.20;;
50126;SDS011;36024;47.974;16.398;2022-12-17T03:10:01;27.43;;;18.17;;
50126;SDS011;36024;47.974;16.398;2022-12-17T03:12:46;26.17;;;17.87;;
50126;SDS011;36024;47.974;16.398;2022-12-17T03:15:31;29.50;;;18.37;;
50126;SDS011;36024;47.974;16.398;2022-12-17T03:18:21;26.83;;;18.60;;
50126;SDS011;36024;47.974;16.398;2022-12-17T03:21:06;25.87;;;17.20;;
50126;SDS011;36024;47.974;16.398;2022-12-17T03:23:51;28.17;;;18.90;;
50126;SDS011;36024;47.974;16.398;2022-12-17T03:26:36;27.27;;;18.50;;
50126;SDS011;36024;47.974;16.398;2022-12-17T03:29:21;28.17;;;18.00;;
50126;SDS011;36024;47.974;16.398;2022-12-17T03:32:07;27.17;;;17.57;;
50126;SDS011;36024;47.974;16.398;2022-12-17T03:34:51;29.30;;;19.20;;
50126;SDS011;36024;47.974;16.398;2022-12-17T03:37:36;25.87;;;17.63;;
50126;SDS011;36024;47.974;16.398;2022-12-17T03:40:21;27.13;;;18.33;;
50126;SDS011;36024;47.974;16.398;2022-12-17T03:43:07;26.30;;;17.30;;
50126;SDS011;36024;47.974;16.398;2022-12-17T03:45:53;27.80;;;18.50;;
50126;SDS011;36024;47.974;16.398;2022-12-17T03:48:38;29.27;;;18.47;;
50126;SDS011;36024;47.974;16.398;2022-12-17T03:51:24;27.07;;;18.50;;
50126;SDS011;36024;47.974;16.398;2022-12-17T03:54:09;27.03;;;17.53;;
50126;SDS011;36024;47.974;16.398;2022-12-17T03:56:54;26.77;;;17.83;;
50126;SDS011;36024;47.974;16.398;2022-12-17T03:59:41;27.03;;;16.37;;
50126;SDS011;36024;47.974;16.398;2022-12-17T04:02:37;28.63;;;19.30;;
50126;SDS011;36024;47.974;16.398;2022-12-17T04:05:23;26.60;;;18.20;;
50126;SDS011;36024;47.974;16.398;2022-12-17T04:08:08;26.73;;;17.97;;
50126;SDS011;36024;47.974;16.398;2022-12-17T04:10:53;27.73;;;18.50;;
50126;SDS011;36024;47.974;16.398;2022-12-17T04:13:39;27.83;;;18.87;;
50126;SDS011;36024;47.974;16.398;2022-12-17T04:16:43;29.70;;;17.80;;
50126;SDS011;36024;47.974;16.398;2022-12-17T04:19:28;28.33;;;19.03;;
50126;SDS011;36024;47.974;16.398;2022-12-17T04:22:13;28.10;;;19.67;;
50126;SDS011;36024;47.974;16.398;2022-12-17T04:24:58;27.67;;;19.43;;
50126;SDS011;36024;47.974;16.398;2022-12-17T04:27:44;28.13;;;18.87;;
50126;SDS011;36024;47.974;16.398;2022-12-17T04:30:29;28.40;;;18.47;;
50126;SDS011;36024;47.974;16.398;2022-12-17T04:33:14;26.83;;;18.43;;
50126;SDS011;36024;47.974;16.398;2022-12-17T04:36:00;29.30;;;19.37;;
50126;SDS011;36024;47.974;16.398;2022-12-17T04:38:45;30.60;;;20.07;;
50126;SDS011;36024;47.974;16.398;2022-12-17T04:41:30;27.83;;;18.57;;
50126;SDS011;36024;47.974;16.398;2022-12-17T04:44:15;25.67;;;17.13;;
50126;SDS011;36024;47.974;16.398;2022-12-17T04:47:00;23.30;;;16.60;;
50126;SDS011;36024;47.974;16.398;2022-12-17T04:49:46;24.70;;;17.73;;
50126;SDS011;36024;47.974;16.398;2022-12-17T04:52:31;25.70;;;18.20;;
50126;SDS011;36024;47.974;16.398;2022-12-17T04:55:16;25.30;;;17.40;;
50126;SDS011;36024;47.974;16.398;2022-12-17T04:58:04;23.67;;;15.73;;
50126;SDS011;36024;47.974;16.398;2022-12-17T05:00:50;24.57;;;15.20;;
50126;SDS011;36024;47.974;16.398;2022-12-17T05:03:38;22.50;;;16.10;;
50126;SDS011;36024;47.974;16.398;2022-12-17T05:06:23;24.73;;;15.73;;
50126;SDS011;36024;47.974;16.398;2022-12-17T05:09:09;26.50;;;16.70;;
50126;SDS011;36024;47.974;16.398;2022-12-17T05:11:54;22.27;;;15.67;;
50126;SDS011;36024;47.974;16.398;2022-12-17T05:14:39;24.17;;;16.77;;
50126;SDS011;36024;47.974;16.398;2022-12-17T05:17:24;25.23;;;17.17;;
50126;SDS011;36024;47.974;16.398;2022-12-17T05:20:09;25.17;;;17.90;;
50126;SDS011;36024;47.974;16.398;2022-12-17T05:22:54;23.97;;;16.40;;
50126;SDS011;36024;47.974;16.398;2022-12-17T05:25:39;26.20;;;17.37;;
50126;SDS011;36024;47.974;16.398;2022-12-17T05:28:24;29.13;;;18.87;;
50126;SDS011;36024;47.974;16.398;2022-12-17T05:31:09;26.30;;;18.57;;
50126;SDS011;36024;47.974;16.398;2022-12-17T05:33:55;26.67;;;18.13;;
50126;SDS011;36024;47.974;16.398;2022-12-17T05:36:40;24.03;;;16.70;;
50126;SDS011;36024;47.974;16.398;2022-12-17T05:39:25;26.37;;;17.57;;
50126;SDS011;36024;47.974;16.398;2022-12-17T05:42:10;26.60;;;16.70;;
50126;SDS011;36024;47.974;16.398;2022-12-17T05:44:55;26.13;;;16.17;;
50126;SDS011;36024;47.974;16.398;2022-12-17T05:47:40;26.77;;;17.50;;
50126;SDS011;36024;47.974;16.398;2022-12-17T05:50:25;25.67;;;16.23;;
50126;SDS011;36024;47.974;16.398;2022-12-17T05:53:11;26.83;;;16.73;;
50126;SDS011;36024;47.974;16.398;2022-12-17T05:56:13;26.77;;;17.07;;
50126;SDS011;36024;47.974;16.398;2022-12-17T05:59:05;28.10;;;17.60;;
50126;SDS011;36024;47.974;16.398;2022-12-17T06:01:51;29.33;;;18.60;;
50126;SDS011;36024;47.974;16.398;2022-12-17T06:04:36;27.47;;;17.77;;
50126;SDS011;36024;47.974;16.398;2022-12-17T06:07:27;27.53;;;17.83;;
50126;SDS011;36024;47.974;16.398;2022-12-17T06:10:12;27.30;;;17.60;;
50126;SDS011;36024;47.974;16.398;2022-12-17T06:12:57;28.87;;;17.70;;
50126;SDS011;36024;47.974;16.398;2022-12-17T06:15:42;27.33;;;16.90;;
50126;SDS011;36024;47.974;16.398;2022-12-17T06:18:27;28.47;;;17.10;;
50126;SDS011;36024;47.974;16.398;2022-12-17T06:21:13;26.73;;;17.13;;
50126;SDS011;36024;47.974;16.398;2022-12-17T06:23:58;26.97;;;17.60;;
50126;SDS011;36024;47.974;16.398;2022-12-17T06:26:43;26.33;;;16.43;;
50126;SDS011;36024;47.974;16.398;2022-12-17T06:29:28;26.23;;;16.50;;
50126;SDS011;36024;47.974;16.398;2022-12-17T06:32:13;27.10;;;17.63;;
50126;SDS011;36024;47.974;16.398;2022-12-17T06:34:58;24.97;;;16.00;;
50126;SDS011;36024;47.974;16.398;2022-12-17T06:37:44;28.67;;;17.57;;
50126;SDS011;36024;47.974;16.398;2022-12-17T06:40:29;28.73;;;17.83;;
50126;SDS011;36024;47.974;16.398;2022-12-17T06:43:14;27.63;;;17.40;;
50126;SDS011;36024;47.974;16.398;2022-12-17T06:46:00;29.37;;;17.97;;
50126;SDS011;36024;47.974;16.398;2022-12-17T06:48:45;29.87;;;17.43;;
50126;SDS011;36024;47.974;16.398;2022-12-17T06:51:31;31.33;;;19.10;;
50126;SDS011;36024;47.974;16.398;2022-12-17T06:54:16;29.70;;;18.23;;
50126;SDS011;36024;47.974;16.398;2022-12-17T06:57:01;28.83;;;17.63;;
50126;SDS011;36024;47.974;16.398;2022-12-17T07:49:57;36.17;;;21.60;;
50126;SDS011;36024;47.974;16.398;2022-12-17T07:53:22;30.43;;;20.10;;
50126;SDS011;36024;47.974;16.398;2022-12-17T07:56:09;33.60;;;20.00;;
50126;SDS011;36024;47.974;16.398;2022-12-17T07:59:23;33.83;;;19.53;;
50126;SDS011;36024;47.974;16.398;2022-12-17T08:02:11;32.90;;;19.23;;
50126;SDS011;36024;47.974;16.398;2022-12-17T08:04:58;31.63;;;18.43;;
50126;SDS011;36024;47.974;16.398;2022-12-17T08:07:44;28.57;;;17.00;;
50126;SDS011;36024;47.974;16.398;2022-12-17T08:10:34;28.17;;;17.83;;
50126;SDS011;36024;47.974;16.398;2022-12-17T08:13:27;20.23;;;13.17;;
50126;SDS011;36024;47.974;16.398;2022-12-17T08:16:13;28.50;;;17.63;;
50126;SDS011;36024;47.974;16.398;2022-12-17T08:19:02;23.13;;;13.37;;
50126;SDS011;36024;47.974;16.398;2022-12-17T08:21:48;30.03;;;17.80;;
50126;SDS011;36024;47.974;16.398;2022-12-17T08:24:34;29.27;;;17.00;;
50126;SDS011;36024;47.974;16.398;2022-12-17T08:27:20;26.97;;;18.00;;
50126;SDS011;36024;47.974;16.398;2022-12-17T08:30:07;30.63;;;18.53;;
50126;SDS011;36024;47.974;16.398;2022-12-17T08:32:53;28.20;;;17.70;;
50126;SDS011;36024;47.974;16.398;2022-12-17T08:35:39;28.47;;;17.80;;
50126;SDS011;36024;47.974;16.398;2022-12-17T08:38:24;26.03;;;16.33;;
50126;SDS011;36024;47.974;16.398;2022-12-17T08:41:09;25.67;;;15.57;;
50126;SDS011;36024;47.974;16.398;2022-12-17T08:43:54;27.87;;;17.67;;
50126;SDS011;36024;47.974;16.398;2022-12-17T08:46:40;26.30;;;15.50;;
50126;SDS011;36024;47.974;16.398;2022-12-17T08:49:25;27.00;;;16.90;;
50126;SDS011;36024;47.974;16.398;2022-12-17T08:52:10;23.87;;;15.17;;
50126;SDS011;36024;47.974;16.398;2022-12-17T08:54:56;24.63;;;15.63;;
50126;SDS011;36024;47.974;16.398;2022-12-17T08:57:41;23.47;;;14.53;;
50126;SDS011;36024;47.974;16.398;2022-12-17T09:00:26;23.07;;;14.70;;
50126;SDS011;36024;47.974;16.398;2022-12-17T09:03:12;25.77;;;15.83;;
50126;SDS011;36024;47.974;16.398;2022-12-17T09:05:58;23.63;;;15.10;;
50126;SDS011;36024;47.974;16.398;2022-12-17T09:08:44;24.03;;;15.70;;
50126;SDS011;36024;47.974;16.398;2022-12-17T09:11:31;24.37;;;14.97;;
50126;SDS011;36024;47.974;16.398;2022-12-17T09:14:17;22.57;;;14.17;;
50126;SDS011;36024;47.974;16.398;2022-12-17T09:17:02;23.03;;;15.33;;
50126;SDS011;36024;47.974;16.398;2022-12-17T09:19:48;22.80;;;15.10;;
50126;SDS011;36024;47.974;16.398;2022-12-17T09:22:40;23.87;;;15.57;;
50126;SDS011;36024;47.974;16.398;2022-12-17T09:25:26;22.20;;;15.53;;
50126;SDS011;36024;47.974;16.398;2022-12-17T09:28:11;23.93;;;15.53;;
50126;SDS011;36024;47.974;16.398;2022-12-17T09:30:57;22.93;;;14.77;;
50126;SDS011;36024;47.974;16.398;2022-12-17T09:33:43;22.90;;;15.27;;
50126;SDS011;36024;47.974;16.398;2022-12-17T09:36:29;22.53;;;15.10;;
50126;SDS011;36024;47.974;16.398;2022-12-17T09:39:16;21.73;;;14.90;;
50126;SDS011;36024;47.974;16.398;2022-12-17T09:47:59;22.90;;;15.80;;
50126;SDS011;36024;47.974;16.398;2022-12-17T09:51:16;24.50;;;15.43;;
50126;SDS011;36024;47.974;16.398;2022-12-17T09:57:31;23.47;;;15.57;;
50126;SDS011;36024;47.974;16.398;2022-12-17T10:00:19;24.67;;;16.17;;
50126;SDS011;36024;47.974;16.398;2022-12-17T10:03:12;22.80;;;15.03;;
50126;SDS011;36024;47.974;16.398;2022-12-17T10:06:06;23.97;;;16.30;;
50126;SDS011;36024;47.974;16.398;2022-12-17T10:08:58;25.87;;;16.60;;
50126;SDS011;36024;47.974;16.398;2022-12-17T10:11:45;25.33;;;16.90;;
50126;SDS011;36024;47.974;16.398;2022-12-17T10:14:30;25.37;;;16.43;;
50126;SDS011;36024;47.974;16.398;2022-12-17T10:17:19;25.73;;;17.50;;
50126;SDS011;36024;47.974;16.398;2022-12-17T10:20:27;24.30;;;16.23;;
50126;SDS011;36024;47.974;16.398;2022-12-17T10:23:26;26.33;;;17.73;;
50126;SDS011;36024;47.974;16.398;2022-12-17T10:26:31;23.93;;;16.53;;
50126;SDS011;36024;47.974;16.398;2022-12-17T10:34:57;24.17;;;17.00;;
50126;SDS011;36024;47.974;16.398;2022-12-17T10:37:43;24.43;;;15.70;;
50126;SDS011;36024;47.974;16.398;2022-12-17T10:40:30;26.60;;;17.30;;
50126;SDS011;36024;47.974;16.398;2022-12-17T10:43:30;26.30;;;16.67;;
50126;SDS011;36024;47.974;16.398;2022-12-17T10:46:27;26.80;;;18.00;;
50126;SDS011;36024;47.974;16.398;2022-12-17T10:49:15;29.67;;;19.47;;
50126;SDS011;36024;47.974;16.398;2022-12-17T10:58:29;30.03;;;18.93;;
50126;SDS011;36024;47.974;16.398;2022-12-17T11:01:22;27.67;;;19.13;;
50126;SDS011;36024;47.974;16.398;2022-12-17T11:07:36;27.27;;;18.50;;
50126;SDS011;36024;47.974;16.398;2022-12-17T11:10:24;25.93;;;18.07;;
50126;SDS011;36024;47.974;16.398;2022-12-17T11:13:35;25.43;;;18.27;;
50126;SDS011;36024;47.974;16.398;2022-12-17T11:16:25;26.53;;;17.83;;
50126;SDS011;36024;47.974;16.398;2022-12-17T11:19:17;28.50;;;19.00;;
50126;SDS011;36024;47.974;16.398;2022-12-17T11:25:21;28.53;;;18.77;;
50126;SDS011;36024;47.974;16.398;2022-12-17T11:28:13;28.27;;;19.17;;
50126;SDS011;36024;47.974;16.398;2022-12-17T11:37:25;28.43;;;18.97;;
50126;SDS011;36024;47.974;16.398;2022-12-17T11:40:37;27.40;;;18.77;;
50126;SDS011;36024;47.974;16.398;2022-12-17T11:46:14;26.10;;;17.17;;
50126;SDS011;36024;47.974;16.398;2022-12-17T11:55:51;28.27;;;18.03;;
50126;SDS011;36024;47.974;16.398;2022-12-17T11:58:51;29.70;;;19.70;;
50126;SDS011;36024;47.974;16.398;2022-12-17T12:05:09;28.83;;;18.83;;
50126;SDS011;36024;47.974;16.398;2022-12-17T12:08:25;28.07;;;18.60;;
50126;SDS011;36024;47.974;16.398;2022-12-17T12:18:09;29.60;;;19.10;;
50126;SDS011;36024;47.974;16.398;2022-12-17T12:21:10;29.00;;;18.20;;
50126;SDS011;36024;47.974;16.398;2022-12-17T12:27:07;28.47;;;19.77;;
50126;SDS011;36024;47.974;16.398;2022-12-17T12:30:09;27.53;;;18.77;;
50126;SDS011;36024;47.974;16.398;2022-12-17T12:36:02;28.80;;;20.40;;
50126;SDS011;36024;47.974;16.398;2022-12-17T12:38:52;27.97;;;19.23;;
50126;SDS011;36024;47.974;16.398;2022-12-17T12:41:59;30.80;;;19.47;;
50126;SDS011;36024;47.974;16.398;2022-12-17T12:44:50;28.90;;;19.60;;
50126;SDS011;36024;47.974;16.398;2022-12-17T12:48:04;29.80;;;20.27;;
50126;SDS011;36024;47.974;16.398;2022-12-17T12:50:58;27.67;;;18.50;;
50126;SDS011;36024;47.974;16.398;2022-12-17T12:53:56;29.60;;;19.50;;
50126;SDS011;36024;47.974;16.398;2022-12-17T12:56:43;27.63;;;18.67;;
50126;SDS011;36024;47.974;16.398;2022-12-17T12:59:29;28.23;;;17.83;;
50126;SDS011;36024;47.974;16.398;2022-12-17T13:05:04;26.20;;;17.07;;
50126;SDS011;36024;47.974;16.398;2022-12-17T13:08:00;28.13;;;18.77;;
50126;SDS011;36024;47.974;16.398;2022-12-17T13:10:42;27.47;;;18.60;;
50126;SDS011;36024;47.974;16.398;2022-12-17T13:15:46;26.23;;;17.20;;
50126;SDS011;36024;47.974;16.398;2022-12-17T13:18:21;31.27;;;20.10;;
50126;SDS011;36024;47.974;16.398;2022-12-17T13:21:04;31.53;;;19.60;;
50126;SDS011;36024;47.974;16.398;2022-12-17T13:23:47;31.33;;;20.77;;
50126;SDS011;36024;47.974;16.398;2022-12-17T13:28:46;29.30;;;19.17;;
50126;SDS011;36024;47.974;16.398;2022-12-17T13:34:27;33.87;;;20.80;;
50126;SDS011;36024;47.974;16.398;2022-12-17T13:37:11;30.67;;;20.13;;
50126;SDS011;36024;47.974;16.398;2022-12-17T13:42:33;31.23;;;20.57;;
50126;SDS011;36024;47.974;16.398;2022-12-17T13:45:01;26.40;;;18.60;;
50126;SDS011;36024;47.974;16.398;2022-12-17T13:47:29;32.03;;;21.20;;
50126;SDS011;36024;47.974;16.398;2022-12-17T13:49:58;30.70;;;20.57;;
50126;SDS011;36024;47.974;16.398;2022-12-17T13:52:46;33.57;;;22.30;;
50126;SDS011;36024;47.974;16.398;2022-12-17T13:55:18;31.40;;;21.73;;
50126;SDS011;36024;47.974;16.398;2022-12-17T13:57:47;32.60;;;21.70;;
50126;SDS011;36024;47.974;16.398;2022-12-17T14:00:25;33.60;;;21.93;;
50126;SDS011;36024;47.974;16.398;2022-12-17T14:02:53;35.50;;;22.47;;
50126;SDS011;36024;47.974;16.398;2022-12-17T14:08:03;34.80;;;22.17;;
50126;SDS011;36024;47.974;16.398;2022-12-17T14:10:30;31.57;;;22.60;;
50126;SDS011;36024;47.974;16.398;2022-12-17T14:13:07;36.40;;;23.77;;
50126;SDS011;36024;47.974;16.398;2022-12-17T14:15:36;35.23;;;22.57;;
50126;SDS011;36024;47.974;16.398;2022-12-17T14:18:04;32.47;;;21.60;;
50126;SDS011;36024;47.974;16.398;2022-12-17T14:20:32;32.70;;;21.97;;
50126;SDS011;36024;47.974;16.398;2022-12-17T14:23:00;33.83;;;21.93;;
50126;SDS011;36024;47.974;16.398;2022-12-17T14:25:30;34.87;;;22.30;;
50126;SDS011;36024;47.974;16.398;2022-12-17T14:28:01;32.77;;;20.90;;
50126;SDS011;36024;47.974;16.398;2022-12-17T14:30:34;31.83;;;21.17;;
50126;SDS011;36024;47.974;16.398;2022-12-17T14:35:53;30.10;;;19.00;;
50126;SDS011;36024;47.974;16.398;2022-12-17T14:38:22;29.07;;;20.40;;
50126;SDS011;36024;47.974;16.398;2022-12-17T14:41:12;31.87;;;20.67;;
50126;SDS011;36024;47.974;16.398;2022-12-17T14:43:58;30.13;;;19.27;;
50126;SDS011;36024;47.974;16.398;2022-12-17T14:46:26;27.33;;;19.23;;
50126;SDS011;36024;47.974;16.398;2022-12-17T14:48:54;32.50;;;21.20;;
50126;SDS011;36024;47.974;16.398;2022-12-17T14:54:15;28.60;;;19.07;;
50126;SDS011;36024;47.974;16.398;2022-12-17T14:56:43;26.67;;;17.80;;
50126;SDS011;36024;47.974;16.398;2022-12-17T15:02:10;26.87;;;17.07;;
50126;SDS011;36024;47.974;16.398;2022-12-17T15:04:39;27.37;;;17.03;;
50126;SDS011;36024;47.974;16.398;2022-12-17T15:07:06;26.37;;;17.70;;
50126;SDS011;36024;47.974;16.398;2022-12-17T15:09:40;27.17;;;18.57;;
50126;SDS011;36024;47.974;16.398;2022-12-17T15:12:07;25.80;;;16.37;;
50126;SDS011;36024;47.974;16.398;2022-12-17T15:14:34;26.23;;;17.90;;
50126;SDS011;36024;47.974;16.398;2022-12-17T15:17:01;28.27;;;18.63;;
50126;SDS011;36024;47.974;16.398;2022-12-17T15:19:27;27.90;;;17.73;;
50126;SDS011;36024;47.974;16.398;2022-12-17T15:21:54;27.37;;;17.90;;
50126;SDS011;36024;47.974;16.398;2022-12-17T15:24:21;30.10;;;18.67;;
50126;SDS011;36024;47.974;16.398;2022-12-17T15:26:47;25.17;;;17.87;;
50126;SDS011;36024;47.974;16.398;2022-12-17T15:29:14;29.07;;;19.30;;
50126;SDS011;36024;47.974;16.398;2022-12-17T15:31:41;29.97;;;18.83;;
50126;SDS011;36024;47.974;16.398;2022-12-17T15:34:08;27.77;;;18.60;;
50126;SDS011;36024;47.974;16.398;2022-12-17T15:36:36;27.70;;;17.23;;
50126;SDS011;36024;47.974;16.398;2022-12-17T15:39:02;29.73;;;18.70;;
50126;SDS011;36024;47.974;16.398;2022-12-17T15:41:31;28.37;;;18.73;;
50126;SDS011;36024;47.974;16.398;2022-12-17T15:44:16;28.20;;;18.37;;
50126;SDS011;36024;47.974;16.398;2022-12-17T15:46:43;26.40;;;18.10;;
50126;SDS011;36024;47.974;16.398;2022-12-17T15:49:10;30.47;;;20.57;;
50126;SDS011;36024;47.974;16.398;2022-12-17T15:51:37;29.03;;;18.90;;
50126;SDS011;36024;47.974;16.398;2022-12-17T15:54:03;33.97;;;21.87;;
50126;SDS011;36024;47.974;16.398;2022-12-17T15:56:30;28.90;;;18.37;;
50126;SDS011;36024;47.974;16.398;2022-12-17T15:58:57;29.80;;;19.20;;
50126;SDS011;36024;47.974;16.398;2022-12-17T16:01:24;26.77;;;17.73;;
50126;SDS011;36024;47.974;16.398;2022-12-17T16:03:51;27.67;;;19.03;;
50126;SDS011;36024;47.974;16.398;2022-12-17T16:06:18;27.10;;;18.47;;
50126;SDS011;36024;47.974;16.398;2022-12-17T16:08:44;28.47;;;19.00;;
50126;SDS011;36024;47.974;16.398;2022-12-17T16:11:12;27.87;;;17.57;;
50126;SDS011;36024;47.974;16.398;2022-12-17T16:13:39;29.63;;;19.40;;
50126;SDS011;36024;47.974;16.398;2022-12-17T16:16:06;28.20;;;16.83;;
50126;SDS011;36024;47.974;16.398;2022-12-17T16:18:34;25.90;;;17.93;;
50126;SDS011;36024;47.974;16.398;2022-12-17T16:21:02;27.30;;;18.43;;
50126;SDS011;36024;47.974;16.398;2022-12-17T16:23:29;30.30;;;18.63;;
50126;SDS011;36024;47.974;16.398;2022-12-17T16:25:56;28.73;;;19.10;;
50126;SDS011;36024;47.974;16.398;2022-12-17T16:28:24;28.83;;;18.47;;
50126;SDS011;36024;47.974;16.398;2022-12-17T16:31:01;28.70;;;19.17;;
50126;SDS011;36024;47.974;16.398;2022-12-17T16:33:36;26.50;;;18.33;;
50126;SDS011;36024;47.974;16.398;2022-12-17T16:36:05;30.30;;;19.43;;
50126;SDS011;36024;47.974;16.398;2022-12-17T16:38:33;31.33;;;20.43;;
50126;SDS011;36024;47.974;16.398;2022-12-17T16:41:01;31.77;;;20.30;;
50126;SDS011;36024;47.974;16.398;2022-12-17T16:43:31;30.73;;;20.10;;
50126;SDS011;36024;47.974;16.398;2022-12-17T16:45:58;62.70;;;36.60;;
50126;SDS011;36024;47.974;16.398;2022-12-17T16:48:25;37.63;;;24.23;;
50126;SDS011;36024;47.974;16.398;2022-12-17T16:50:52;33.77;;;22.70;;
50126;SDS011;36024;47.974;16.398;2022-12-17T16:53:19;33.73;;;22.53;;
50126;SDS011;36024;47.974;16.398;2022-12-17T16:55:46;33.40;;;21.87;;
50126;SDS011;36024;47.974;16.398;2022-12-17T16:58:15;31.73;;;20.50;;
50126;SDS011;36024;47.974;16.398;2022-12-17T17:00:42;31.23;;;21.03;;
50126;SDS011;36024;47.974;16.398;2022-12-17T17:03:10;33.90;;;21.33;;
50126;SDS011;36024;47.974;16.398;2022-12-17T17:05:38;31.10;;;21.90;;
50126;SDS011;36024;47.974;16.398;2022-12-17T17:08:05;34.37;;;22.63;;
50126;SDS011;36024;47.974;16.398;2022-12-17T17:10:33;36.00;;;23.13;;
50126;SDS011;36024;47.974;16.398;2022-12-17T17:13:01;35.53;;;24.83;;
50126;SDS011;36024;47.974;16.398;2022-12-17T17:15:27;40.37;;;27.70;;
50126;SDS011;36024;47.974;16.398;2022-12-17T17:17:54;37.47;;;24.90;;
50126;SDS011;36024;47.974;16.398;2022-12-17T17:20:27;37.83;;;23.73;;
50126;SDS011;36024;47.974;16.398;2022-12-17T17:22:57;37.90;;;23.60;;
50126;SDS011;36024;47.974;16.398;2022-12-17T17:25:24;41.83;;;25.70;;
50126;SDS011;36024;47.974;16.398;2022-12-17T17:28:11;40.23;;;24.90;;
50126;SDS011;36024;47.974;16.398;2022-12-17T17:30:38;41.27;;;26.23;;
50126;SDS011;36024;47.974;16.398;2022-12-17T17:33:05;38.77;;;25.30;;
50126;SDS011;36024;47.974;16.398;2022-12-17T17:35:32;37.67;;;24.17;;
50126;SDS011;36024;47.974;16.398;2022-12-17T17:37:58;40.03;;;24.50;;
50126;SDS011;36024;47.974;16.398;2022-12-17T17:40:25;37.70;;;24.87;;
50126;SDS011;36024;47.974;16.398;2022-12-17T17:42:52;37.97;;;24.27;;
50126;SDS011;36024;47.974;16.398;2022-12-17T17:45:18;36.93;;;23.40;;
50126;SDS011;36024;47.974;16.398;2022-12-17T17:47:45;38.47;;;24.57;;
50126;SDS011;36024;47.974;16.398;2022-12-17T17:50:12;38.33;;;25.27;;
50126;SDS011;36024;47.974;16.398;2022-12-17T17:52:38;35.23;;;23.70;;
50126;SDS011;36024;47.974;16.398;2022-12-17T17:55:05;36.33;;;23.83;;
50126;SDS011;36024;47.974;16.398;2022-12-17T17:57:32;35.47;;;23.27;;
50126;SDS011;36024;47.974;16.398;2022-12-17T17:59:58;34.67;;;23.60;;